createdAt,value
2019-04-30T00:00:22.850Z,1017.69
2019-04-30T00:01:22.831Z,1017.68
2019-04-30T00:02:22.818Z,1017.71
2019-04-30T00:03:22.791Z,1017.67
2019-04-30T00:04:22.769Z,1017.64
2019-04-30T00:05:22.752Z,1017.66
2019-04-30T00:06:28.219Z,1017.64
2019-04-30T00:07:22.717Z,1017.68
2019-04-30T00:08:22.694Z,1017.66
2019-04-30T00:09:22.666Z,1017.67
2019-04-30T00:10:22.646Z,1017.65
2019-04-30T00:11:22.627Z,1017.63
2019-04-30T00:12:22.605Z,1017.62
2019-04-30T00:13:22.634Z,1017.58
2019-04-30T00:14:22.562Z,1017.59
2019-04-30T00:15:22.544Z,1017.60
2019-04-30T00:16:22.523Z,1017.60
2019-04-30T00:17:22.502Z,1017.62
2019-04-30T00:18:22.481Z,1017.60
2019-04-30T00:19:22.461Z,1017.59
2019-04-30T00:20:22.440Z,1017.61
2019-04-30T00:21:22.419Z,1017.62
2019-04-30T00:22:33.053Z,1017.63
2019-04-30T00:23:22.729Z,1017.55
2019-04-30T00:24:22.359Z,1017.57
2019-04-30T00:25:26.914Z,1017.58
2019-04-30T00:26:22.316Z,1017.60
2019-04-30T00:27:26.348Z,1017.57
2019-04-30T00:28:22.274Z,1017.61
2019-04-30T00:29:26.954Z,1017.55
2019-04-30T00:30:22.234Z,1017.54
2019-04-30T00:31:23.734Z,1017.57
2019-04-30T00:32:22.195Z,1017.52
2019-04-30T00:33:25.085Z,1017.51
2019-04-30T00:34:22.152Z,1017.50
2019-04-30T00:35:22.140Z,1017.51
2019-04-30T00:36:22.128Z,1017.51
2019-04-30T00:37:22.093Z,1017.52
2019-04-30T00:38:22.072Z,1017.51
2019-04-30T00:39:22.072Z,1017.49
2019-04-30T00:40:26.658Z,1017.48
2019-04-30T00:41:22.008Z,1017.45
2019-04-30T00:42:24.479Z,1017.47
2019-04-30T00:43:21.967Z,1017.39
2019-04-30T00:44:24.839Z,1017.43
2019-04-30T00:45:21.932Z,1017.38
2019-04-30T00:46:25.001Z,1017.39
2019-04-30T00:47:21.884Z,1017.37
2019-04-30T00:48:29.528Z,1017.37
2019-04-30T00:49:23.344Z,1017.32
2019-04-30T00:50:21.823Z,1017.35
2019-04-30T00:51:21.805Z,1017.37
2019-04-30T00:52:21.784Z,1017.38
2019-04-30T00:53:21.761Z,1017.39
2019-04-30T00:54:22.559Z,1017.38
2019-04-30T00:55:21.721Z,1017.38
2019-04-30T00:56:24.766Z,1017.37
2019-04-30T00:57:21.678Z,1017.38
2019-04-30T00:58:28.956Z,1017.39
2019-04-30T00:59:21.638Z,1017.39
2019-04-30T01:00:28.167Z,1017.39
2019-04-30T01:01:21.596Z,1017.38
2019-04-30T01:02:30.445Z,1017.36
2019-04-30T01:03:21.556Z,1017.34
2019-04-30T01:04:26.644Z,1017.32
2019-04-30T01:05:21.517Z,1017.34
2019-04-30T01:06:26.849Z,1017.33
2019-04-30T01:07:21.471Z,1017.34
2019-04-30T01:08:27.183Z,1017.34
2019-04-30T01:09:21.431Z,1017.31
2019-04-30T01:10:24.742Z,1017.34
2019-04-30T01:11:21.389Z,1017.32
2019-04-30T01:12:27.595Z,1017.34
2019-04-30T01:13:21.358Z,1017.34
2019-04-30T01:14:23.253Z,1017.31
2019-04-30T01:15:21.319Z,1017.29
2019-04-30T01:16:23.586Z,1017.31
2019-04-30T01:17:21.266Z,1017.29
2019-04-30T01:18:23.577Z,1017.32
2019-04-30T01:19:29.920Z,1017.32
2019-04-30T01:20:24.174Z,1017.32
2019-04-30T01:21:21.336Z,1017.32
2019-04-30T01:22:27.753Z,1017.29
2019-04-30T01:23:21.148Z,1017.31
2019-04-30T01:24:23.468Z,1017.32
2019-04-30T01:25:21.105Z,1017.24
2019-04-30T01:26:22.817Z,1017.28
2019-04-30T01:27:21.111Z,1017.30
2019-04-30T01:28:24.273Z,1017.30
2019-04-30T01:29:21.020Z,1017.29
2019-04-30T01:30:22.734Z,1017.27
2019-04-30T01:31:21.148Z,1017.28
2019-04-30T01:32:21.312Z,1017.28
2019-04-30T01:33:20.934Z,1017.29
2019-04-30T01:34:20.910Z,1017.32
2019-04-30T01:35:23.806Z,1017.27
2019-04-30T01:36:20.874Z,1017.25
2019-04-30T01:37:28.308Z,1017.27
2019-04-30T01:38:20.830Z,1017.23
2019-04-30T01:39:23.657Z,1017.24
2019-04-30T01:40:20.790Z,1017.27
2019-04-30T01:41:27.462Z,1017.28
2019-04-30T01:42:20.746Z,1017.29
2019-04-30T01:43:30.039Z,1017.30
2019-04-30T01:44:20.703Z,1017.30
2019-04-30T01:45:23.210Z,1017.26
2019-04-30T01:46:21.025Z,1017.28
2019-04-30T01:47:21.541Z,1017.26
2019-04-30T01:48:20.629Z,1017.29
2019-04-30T01:49:25.630Z,1017.25
2019-04-30T01:50:20.585Z,1017.31
2019-04-30T01:51:21.875Z,1017.25
2019-04-30T01:52:20.536Z,1017.28
2019-04-30T01:53:20.518Z,1017.30
2019-04-30T01:54:24.025Z,1017.29
2019-04-30T01:55:20.474Z,1017.30
2019-04-30T01:56:20.453Z,1017.32
2019-04-30T01:57:20.433Z,1017.31
2019-04-30T01:58:20.412Z,1017.31
2019-04-30T01:59:20.392Z,1017.32
2019-04-30T02:00:20.378Z,1017.35
2019-04-30T02:01:20.351Z,1017.35
2019-04-30T02:02:20.329Z,1017.35
2019-04-30T02:03:20.310Z,1017.38
2019-04-30T02:04:20.290Z,1017.39
2019-04-30T02:05:20.267Z,1017.38
2019-04-30T02:06:20.251Z,1017.35
2019-04-30T02:07:20.233Z,1017.32
2019-04-30T02:08:20.207Z,1017.35
2019-04-30T02:09:20.719Z,1017.33
2019-04-30T02:10:20.165Z,1017.31
2019-04-30T02:11:20.143Z,1017.30
2019-04-30T02:12:21.887Z,1017.31
2019-04-30T02:13:20.111Z,1017.30
2019-04-30T02:14:20.081Z,1017.29
2019-04-30T02:15:20.076Z,1017.28
2019-04-30T02:16:21.169Z,1017.30
2019-04-30T02:17:20.019Z,1017.25
2019-04-30T02:18:19.997Z,1017.28
2019-04-30T02:19:19.979Z,1017.28
2019-04-30T02:20:19.956Z,1017.28
2019-04-30T02:21:19.936Z,1017.27
2019-04-30T02:22:19.923Z,1017.26
2019-04-30T02:23:19.892Z,1017.22
2019-04-30T02:24:19.873Z,1017.25
2019-04-30T02:25:19.855Z,1017.28
2019-04-30T02:26:19.829Z,1017.27
2019-04-30T02:27:21.664Z,1017.25
2019-04-30T02:28:19.787Z,1017.23
2019-04-30T02:29:19.767Z,1017.23
2019-04-30T02:30:20.908Z,1017.21
2019-04-30T02:31:22.984Z,1017.22
2019-04-30T02:32:20.801Z,1017.17
2019-04-30T02:33:20.151Z,1017.17
2019-04-30T02:34:22.089Z,1017.19
2019-04-30T02:35:19.652Z,1017.18
2019-04-30T02:36:19.894Z,1017.19
2019-04-30T02:37:21.037Z,1017.19
2019-04-30T02:38:20.328Z,1017.20
2019-04-30T02:39:20.384Z,1017.22
2019-04-30T02:40:20.214Z,1017.25
2019-04-30T02:41:19.517Z,1017.19
2019-04-30T02:42:20.166Z,1017.19
2019-04-30T02:43:20.404Z,1017.24
2019-04-30T02:44:19.697Z,1017.26
2019-04-30T02:45:19.883Z,1017.21
2019-04-30T02:46:19.411Z,1017.20
2019-04-30T02:47:20.254Z,1017.23
2019-04-30T02:48:19.521Z,1017.22
2019-04-30T02:49:20.470Z,1017.20
2019-04-30T02:50:22.479Z,1017.16
2019-04-30T02:51:20.084Z,1017.13
2019-04-30T02:52:19.648Z,1017.17
2019-04-30T02:53:19.921Z,1017.16
2019-04-30T02:54:22.930Z,1017.16
2019-04-30T02:55:19.503Z,1017.16
2019-04-30T02:56:20.227Z,1017.18
2019-04-30T02:57:22.850Z,1017.15
2019-04-30T02:58:21.019Z,1017.19
2019-04-30T02:59:20.225Z,1017.18
2019-04-30T03:00:20.565Z,1017.19
2019-04-30T03:01:20.249Z,1017.22
2019-04-30T03:02:19.575Z,1017.21
2019-04-30T03:03:20.413Z,1017.23
2019-04-30T03:04:19.662Z,1017.18
2019-04-30T03:05:20.289Z,1017.22
2019-04-30T03:06:20.428Z,1017.20
2019-04-30T03:07:19.444Z,1017.22
2019-04-30T03:08:19.863Z,1017.20
2019-04-30T03:09:20.174Z,1017.19
2019-04-30T03:10:19.824Z,1017.17
2019-04-30T03:11:20.613Z,1017.21
2019-04-30T03:12:20.311Z,1017.19
2019-04-30T03:13:20.147Z,1017.20
2019-04-30T03:14:20.230Z,1017.19
2019-04-30T03:15:19.479Z,1017.17
2019-04-30T03:16:20.787Z,1017.17
2019-04-30T03:17:20.906Z,1017.20
2019-04-30T03:18:19.593Z,1017.17
2019-04-30T03:19:19.639Z,1017.11
2019-04-30T03:20:31.353Z,1017.14
2019-04-30T03:21:19.138Z,1017.07
2019-04-30T03:22:20.333Z,1017.07
2019-04-30T03:23:19.545Z,1017.09
2019-04-30T03:24:20.174Z,1017.12
2019-04-30T03:25:19.285Z,1017.09
2019-04-30T03:26:20.038Z,1017.06
2019-04-30T03:27:20.633Z,1017.06
2019-04-30T03:28:20.177Z,1017.03
2019-04-30T03:29:23.381Z,1017.04
2019-04-30T03:30:21.788Z,1017.02
2019-04-30T03:31:22.370Z,1017.03
2019-04-30T03:32:22.235Z,1017.06
2019-04-30T03:33:22.919Z,1017.03
2019-04-30T03:34:25.161Z,1017.05
2019-04-30T03:35:22.538Z,1017.06
2019-04-30T03:36:21.604Z,1017.06
2019-04-30T03:37:19.813Z,1017.02
2019-04-30T03:38:20.377Z,1017.02
2019-04-30T03:39:19.898Z,1016.99
2019-04-30T03:40:20.250Z,1016.96
2019-04-30T03:41:19.819Z,1016.98
2019-04-30T03:42:19.901Z,1017.03
2019-04-30T03:43:20.152Z,1016.95
2019-04-30T03:44:22.566Z,1016.94
2019-04-30T03:45:20.429Z,1016.99
2019-04-30T03:46:19.469Z,1016.93
2019-04-30T03:47:20.229Z,1016.93
2019-04-30T03:48:19.978Z,1016.96
2019-04-30T03:49:20.316Z,1016.91
2019-04-30T03:50:19.831Z,1016.92
2019-04-30T03:51:19.897Z,1016.95
2019-04-30T03:52:19.703Z,1016.90
2019-04-30T03:53:20.230Z,1016.92
2019-04-30T03:54:19.307Z,1016.95
2019-04-30T03:55:20.359Z,1016.93
2019-04-30T03:56:22.427Z,1016.92
2019-04-30T03:57:20.319Z,1016.95
2019-04-30T03:58:21.284Z,1016.93
2019-04-30T03:59:19.916Z,1016.93
2019-04-30T04:00:20.190Z,1016.91
2019-04-30T04:01:19.666Z,1016.95
2019-04-30T04:02:20.572Z,1017.00
2019-04-30T04:03:20.124Z,1016.97
2019-04-30T04:04:20.046Z,1017.00
2019-04-30T04:05:20.022Z,1016.99
2019-04-30T04:06:21.212Z,1016.98
2019-04-30T04:07:20.087Z,1017.04
2019-04-30T04:08:19.577Z,1017.00
2019-04-30T04:09:21.985Z,1017.01
2019-04-30T04:10:19.544Z,1017.01
2019-04-30T04:11:19.942Z,1017.00
2019-04-30T04:12:20.525Z,1017.02
2019-04-30T04:13:19.751Z,1017.01
2019-04-30T04:14:19.693Z,1017.03
2019-04-30T04:15:19.777Z,1017.02
2019-04-30T04:16:19.495Z,1017.08
2019-04-30T04:17:20.077Z,1017.09
2019-04-30T04:18:20.005Z,1017.11
2019-04-30T04:19:19.670Z,1017.09
2019-04-30T04:20:20.049Z,1017.12
2019-04-30T04:21:20.430Z,1017.11
2019-04-30T04:22:20.321Z,1017.09
2019-04-30T04:23:19.281Z,1017.15
2019-04-30T04:24:17.321Z,1017.16
2019-04-30T04:25:20.445Z,1017.17
2019-04-30T04:26:20.065Z,1017.19
2019-04-30T04:27:19.447Z,1017.20
2019-04-30T04:28:20.076Z,1017.17
2019-04-30T04:29:19.569Z,1017.18
2019-04-30T04:30:20.053Z,1017.13
2019-04-30T04:31:19.275Z,1017.17
2019-04-30T04:32:17.147Z,1017.14
2019-04-30T04:33:19.747Z,1017.17
2019-04-30T04:34:19.710Z,1017.21
2019-04-30T04:35:19.508Z,1017.20
2019-04-30T04:36:17.059Z,1017.18
2019-04-30T04:37:19.172Z,1017.19
2019-04-30T04:38:17.016Z,1017.20
2019-04-30T04:39:19.880Z,1017.22
2019-04-30T04:40:16.973Z,1017.23
2019-04-30T04:41:19.597Z,1017.23
2019-04-30T04:42:19.135Z,1017.26
2019-04-30T04:43:16.917Z,1017.27
2019-04-30T04:44:19.677Z,1017.26
2019-04-30T04:45:19.590Z,1017.27
2019-04-30T04:46:16.844Z,1017.28
2019-04-30T04:47:19.476Z,1017.27
2019-04-30T04:48:19.782Z,1017.24
2019-04-30T04:49:16.778Z,1017.27
2019-04-30T04:50:16.755Z,1017.22
2019-04-30T04:51:31.413Z,1017.26
2019-04-30T04:52:16.716Z,1017.26
2019-04-30T04:53:19.321Z,1017.32
2019-04-30T04:54:16.673Z,1017.36
2019-04-30T04:55:16.650Z,1017.35
2019-04-30T04:56:18.954Z,1017.34
2019-04-30T04:57:19.556Z,1017.36
2019-04-30T04:58:16.588Z,1017.33
2019-04-30T04:59:16.564Z,1017.34
2019-04-30T05:00:16.542Z,1017.36
2019-04-30T05:01:16.527Z,1017.37
2019-04-30T05:02:16.524Z,1017.34
2019-04-30T05:03:16.485Z,1017.39
2019-04-30T05:04:16.455Z,1017.45
2019-04-30T05:05:16.440Z,1017.41
2019-04-30T05:06:16.411Z,1017.43
2019-04-30T05:07:16.391Z,1017.41
2019-04-30T05:08:16.384Z,1017.49
2019-04-30T05:09:16.353Z,1017.49
2019-04-30T05:10:16.327Z,1017.43
2019-04-30T05:11:16.304Z,1017.44
2019-04-30T05:12:16.285Z,1017.47
2019-04-30T05:13:16.261Z,1017.45
2019-04-30T05:14:16.241Z,1017.44
2019-04-30T05:15:16.220Z,1017.44
2019-04-30T05:16:16.210Z,1017.44
2019-04-30T05:17:16.181Z,1017.49
2019-04-30T05:18:16.307Z,1017.48
2019-04-30T05:19:16.135Z,1017.45
2019-04-30T05:20:16.115Z,1017.49
2019-04-30T05:21:16.095Z,1017.46
2019-04-30T05:22:16.088Z,1017.45
2019-04-30T05:23:16.049Z,1017.48
2019-04-30T05:24:16.028Z,1017.48
2019-04-30T05:25:16.008Z,1017.48
2019-04-30T05:26:15.985Z,1017.47
2019-04-30T05:27:15.965Z,1017.48
2019-04-30T05:28:15.946Z,1017.46
2019-04-30T05:29:15.930Z,1017.46
2019-04-30T05:30:15.909Z,1017.45
2019-04-30T05:31:15.881Z,1017.52
2019-04-30T05:32:15.885Z,1017.76
2019-04-30T05:33:15.840Z,1017.56
2019-04-30T05:34:15.819Z,1017.57
2019-04-30T05:35:15.798Z,1017.59
2019-04-30T05:36:15.785Z,1017.63
2019-04-30T05:37:15.767Z,1017.63
2019-04-30T05:38:15.745Z,1017.54
2019-04-30T05:39:15.738Z,1017.56
2019-04-30T05:40:15.705Z,1017.53
2019-04-30T05:41:15.676Z,1017.58
2019-04-30T05:42:15.654Z,1017.57
2019-04-30T05:43:15.634Z,1017.61
2019-04-30T05:44:15.617Z,1017.64
2019-04-30T05:45:15.599Z,1017.67
2019-04-30T05:46:15.579Z,1017.64
2019-04-30T05:47:15.555Z,1017.64
2019-04-30T05:48:15.537Z,1017.61
2019-04-30T05:49:15.523Z,1017.61
2019-04-30T05:50:15.510Z,1017.64
2019-04-30T05:51:15.472Z,1017.63
2019-04-30T05:52:15.455Z,1017.64
2019-04-30T05:53:15.444Z,1017.65
2019-04-30T05:54:15.462Z,1017.66
2019-04-30T05:55:15.400Z,1017.69
2019-04-30T05:56:15.388Z,1017.68
2019-04-30T05:57:15.358Z,1017.66
2019-04-30T05:58:15.332Z,1017.66
2019-04-30T05:59:15.312Z,1017.67
2019-04-30T06:00:15.301Z,1017.67
2019-04-30T06:01:15.275Z,1017.68
2019-04-30T06:02:15.260Z,1017.67
2019-04-30T06:03:25.120Z,1017.65
2019-04-30T06:04:15.218Z,1017.65
2019-04-30T06:05:15.194Z,1017.67
2019-04-30T06:06:15.172Z,1017.67
2019-04-30T06:07:15.160Z,1017.66
2019-04-30T06:08:15.134Z,1017.65
2019-04-30T06:09:28.946Z,1017.68
2019-04-30T06:10:15.093Z,1017.67
2019-04-30T06:11:15.074Z,1017.65
2019-04-30T06:12:15.052Z,1017.69
2019-04-30T06:13:15.164Z,1017.73
2019-04-30T06:14:15.021Z,1017.65
2019-04-30T06:15:14.993Z,1017.65
2019-04-30T06:16:14.974Z,1017.62
2019-04-30T06:17:14.980Z,1017.65
2019-04-30T06:18:14.934Z,1017.66
2019-04-30T06:19:14.921Z,1017.70
2019-04-30T06:20:18.376Z,1017.65
2019-04-30T06:21:14.872Z,1017.72
2019-04-30T06:22:14.858Z,1017.74
2019-04-30T06:23:14.833Z,1017.73
2019-04-30T06:24:14.864Z,1017.73
2019-04-30T06:25:27.186Z,1017.71
2019-04-30T06:26:14.773Z,1017.73
2019-04-30T06:27:14.753Z,1017.74
2019-04-30T06:28:14.733Z,1017.79
2019-04-30T06:29:14.716Z,1017.81
2019-04-30T06:30:14.693Z,1017.80
2019-04-30T06:31:14.675Z,1017.78
2019-04-30T06:32:14.655Z,1017.83
2019-04-30T06:33:14.636Z,1017.82
2019-04-30T06:34:14.633Z,1017.83
2019-04-30T06:35:14.595Z,1017.82
2019-04-30T06:36:14.574Z,1017.82
2019-04-30T06:37:14.567Z,1017.78
2019-04-30T06:38:14.533Z,1017.84
2019-04-30T06:39:14.519Z,1017.81
2019-04-30T06:40:14.504Z,1017.80
2019-04-30T06:41:14.475Z,1017.80
2019-04-30T06:42:14.469Z,1017.82
2019-04-30T06:43:14.449Z,1017.83
2019-04-30T06:44:14.424Z,1017.82
2019-04-30T06:45:14.405Z,1017.79
2019-04-30T06:46:14.376Z,1017.83
2019-04-30T06:47:14.361Z,1017.80
2019-04-30T06:48:14.338Z,1017.83
2019-04-30T06:49:14.320Z,1017.84
2019-04-30T06:50:14.299Z,1017.82
2019-04-30T06:51:14.282Z,1017.87
2019-04-30T06:52:20.523Z,1017.87
2019-04-30T06:53:14.260Z,1017.86
2019-04-30T06:54:14.225Z,1017.87
2019-04-30T06:55:14.202Z,1017.90
2019-04-30T06:56:14.208Z,1017.93
2019-04-30T06:57:14.170Z,1017.98
2019-04-30T06:58:15.565Z,1017.94
2019-04-30T06:59:14.125Z,1017.94
2019-04-30T07:00:14.104Z,1017.91
2019-04-30T07:01:14.087Z,1017.92
2019-04-30T07:02:14.076Z,1017.95
2019-04-30T07:03:14.046Z,1017.96
2019-04-30T07:04:14.027Z,1017.94
2019-04-30T07:05:14.005Z,1017.94
2019-04-30T07:06:13.995Z,1017.96
2019-04-30T07:07:14.331Z,1017.92
2019-04-30T07:08:13.977Z,1017.96
2019-04-30T07:09:13.931Z,1017.91
2019-04-30T07:10:16.843Z,1017.97
2019-04-30T07:11:13.900Z,1018.00
2019-04-30T07:12:25.537Z,1017.97
2019-04-30T07:13:13.866Z,1017.98
2019-04-30T07:14:13.856Z,1017.95
2019-04-30T07:15:13.864Z,1017.95
2019-04-30T07:16:13.850Z,1017.97
2019-04-30T07:17:13.784Z,1017.94
2019-04-30T07:18:13.761Z,1017.99
2019-04-30T07:19:13.744Z,1017.96
2019-04-30T07:20:13.727Z,1017.94
2019-04-30T07:21:13.707Z,1017.95
2019-04-30T07:22:13.688Z,1018.01
2019-04-30T07:23:13.670Z,1017.99
2019-04-30T07:24:13.724Z,1017.97
2019-04-30T07:25:13.633Z,1017.97
2019-04-30T07:26:18.356Z,1018.00
2019-04-30T07:27:13.604Z,1017.98
2019-04-30T07:28:13.582Z,1017.99
2019-04-30T07:29:13.577Z,1017.95
2019-04-30T07:30:13.543Z,1018.00
2019-04-30T07:31:14.859Z,1017.97
2019-04-30T07:32:13.508Z,1018.00
2019-04-30T07:33:13.488Z,1018.08
2019-04-30T07:34:13.517Z,1018.03
2019-04-30T07:35:13.451Z,1018.02
2019-04-30T07:36:13.435Z,1018.07
2019-04-30T07:37:20.552Z,1018.10
2019-04-30T07:38:13.405Z,1018.13
2019-04-30T07:39:13.382Z,1018.12
2019-04-30T07:40:13.363Z,1018.26
2019-04-30T07:41:13.350Z,1018.14
2019-04-30T07:42:13.330Z,1018.17
2019-04-30T07:43:13.314Z,1018.25
2019-04-30T07:44:30.173Z,1018.13
2019-04-30T07:45:13.276Z,1018.09
2019-04-30T07:46:13.260Z,1018.16
2019-04-30T07:47:13.269Z,1018.18
2019-04-30T07:48:13.227Z,1018.09
2019-04-30T07:49:13.210Z,1018.10
2019-04-30T07:50:13.670Z,1018.14
2019-04-30T07:51:13.713Z,1018.18
2019-04-30T07:52:13.975Z,1018.15
2019-04-30T07:53:13.539Z,1018.12
2019-04-30T07:54:13.129Z,1018.13
2019-04-30T07:55:13.111Z,1018.09
2019-04-30T07:56:25.637Z,1018.11
2019-04-30T07:57:13.136Z,1018.14
2019-04-30T07:58:13.074Z,1018.16
2019-04-30T07:59:13.054Z,1018.18
2019-04-30T08:00:13.042Z,1018.22
2019-04-30T08:01:13.017Z,1018.19
2019-04-30T08:02:14.848Z,1018.22
2019-04-30T08:03:13.380Z,1018.15
2019-04-30T08:04:12.978Z,1018.20
2019-04-30T08:05:12.953Z,1018.23
2019-04-30T08:06:12.992Z,1018.20
2019-04-30T08:07:12.978Z,1018.17
2019-04-30T08:08:20.930Z,1018.18
2019-04-30T08:09:12.894Z,1018.21
2019-04-30T08:10:12.887Z,1018.23
2019-04-30T08:11:22.959Z,1018.19
2019-04-30T08:12:21.761Z,1018.23
2019-04-30T08:13:15.104Z,1018.29
2019-04-30T08:14:12.803Z,1018.25
2019-04-30T08:15:12.789Z,1018.20
2019-04-30T08:16:12.774Z,1018.21
2019-04-30T08:17:12.762Z,1018.21
2019-04-30T08:18:12.734Z,1018.22
2019-04-30T08:19:12.718Z,1018.20
2019-04-30T08:20:15.639Z,1018.23
2019-04-30T08:21:12.695Z,1018.20
2019-04-30T08:22:12.669Z,1018.18
2019-04-30T08:23:17.348Z,1018.20
2019-04-30T08:24:12.653Z,1018.18
2019-04-30T08:25:12.621Z,1018.18
2019-04-30T08:26:12.612Z,1018.20
2019-04-30T08:27:12.597Z,1018.13
2019-04-30T08:28:12.573Z,1018.17
2019-04-30T08:29:12.557Z,1018.19
2019-04-30T08:30:21.294Z,1018.15
2019-04-30T08:31:12.525Z,1018.20
2019-04-30T08:32:12.513Z,1018.22
2019-04-30T08:33:12.505Z,1018.23
2019-04-30T08:34:12.475Z,1018.20
2019-04-30T08:35:12.460Z,1018.29
2019-04-30T08:36:12.443Z,1018.30
2019-04-30T08:37:17.475Z,1018.36
2019-04-30T08:38:12.411Z,1018.32
2019-04-30T08:39:12.393Z,1018.30
2019-04-30T08:40:12.382Z,1018.34
2019-04-30T08:41:12.365Z,1018.31
2019-04-30T08:42:12.349Z,1018.30
2019-04-30T08:43:12.329Z,1018.27
2019-04-30T08:44:12.323Z,1018.33
2019-04-30T08:45:12.297Z,1018.31
2019-04-30T08:46:12.289Z,1018.29
2019-04-30T08:47:12.270Z,1018.28
2019-04-30T08:48:12.248Z,1018.28
2019-04-30T08:49:12.465Z,1018.27
2019-04-30T08:50:12.294Z,1018.29
2019-04-30T08:51:13.928Z,1018.29
2019-04-30T08:52:12.222Z,1018.30
2019-04-30T08:53:12.186Z,1018.29
2019-04-30T08:54:12.150Z,1018.28
2019-04-30T08:55:16.596Z,1018.24
2019-04-30T08:56:12.130Z,1018.29
2019-04-30T08:57:12.113Z,1018.31
2019-04-30T08:58:14.943Z,1018.30
2019-04-30T08:59:12.070Z,1018.36
2019-04-30T09:00:14.953Z,1018.35
2019-04-30T09:01:12.038Z,1018.26
2019-04-30T09:02:16.104Z,1018.34
2019-04-30T09:03:12.018Z,1018.30
2019-04-30T09:04:11.988Z,1018.34
2019-04-30T09:05:11.974Z,1018.34
2019-04-30T09:06:11.956Z,1018.51
2019-04-30T09:07:11.955Z,1018.32
2019-04-30T09:08:11.943Z,1018.28
2019-04-30T09:09:11.911Z,1018.39
2019-04-30T09:10:11.919Z,1018.21
2019-04-30T09:11:22.464Z,1018.21
2019-04-30T09:12:11.865Z,1018.19
2019-04-30T09:13:11.869Z,1018.31
2019-04-30T09:14:11.837Z,1018.16
2019-04-30T09:15:56.194Z,1018.18
2019-04-30T09:16:56.181Z,1018.18
2019-04-30T09:18:03.342Z,1018.18
2019-04-30T09:18:56.153Z,1018.12
2019-04-30T09:19:56.138Z,1018.23
2019-04-30T09:21:04.194Z,1018.11
2019-04-30T09:21:56.110Z,1018.09
2019-04-30T09:22:56.095Z,1018.12
2019-04-30T09:23:56.089Z,1018.11
2019-04-30T09:24:56.069Z,1018.11
2019-04-30T09:25:56.055Z,1018.06
2019-04-30T09:26:56.041Z,1018.15
2019-04-30T09:27:56.026Z,1018.13
2019-04-30T09:28:56.019Z,1018.09
2019-04-30T09:29:55.995Z,1018.08
2019-04-30T09:30:55.983Z,1018.13
2019-04-30T09:31:55.968Z,1018.12
2019-04-30T09:32:55.954Z,1018.13
2019-04-30T09:33:57.960Z,1018.13
2019-04-30T09:34:55.931Z,1018.11
2019-04-30T09:35:55.910Z,1018.16
2019-04-30T09:36:55.905Z,1018.14
2019-04-30T09:38:01.132Z,1018.25
2019-04-30T09:39:01.326Z,1018.19
2019-04-30T09:39:59.378Z,1018.21
2019-04-30T09:40:55.842Z,1018.12
2019-04-30T09:41:55.829Z,1018.29
2019-04-30T09:42:55.815Z,1018.46
2019-04-30T09:43:55.801Z,1018.33
2019-04-30T09:44:57.250Z,1018.39
2019-04-30T09:45:55.779Z,1018.45
2019-04-30T09:46:55.859Z,1018.45
2019-04-30T09:47:55.767Z,1018.44
2019-04-30T09:48:55.742Z,1018.49
2019-04-30T09:49:55.737Z,1018.48
2019-04-30T09:50:55.986Z,1018.47
2019-04-30T09:51:55.706Z,1018.52
2019-04-30T09:52:55.696Z,1018.48
2019-04-30T09:53:59.762Z,1018.42
2019-04-30T09:54:55.719Z,1018.39
2019-04-30T09:55:55.667Z,1018.38
2019-04-30T09:56:55.659Z,1018.33
2019-04-30T09:57:55.649Z,1018.27
2019-04-30T09:58:55.652Z,1018.33
2019-04-30T09:59:55.643Z,1018.29
2019-04-30T10:00:55.629Z,1018.25
2019-04-30T10:01:55.624Z,1018.26
2019-04-30T10:02:55.690Z,1018.31
2019-04-30T10:03:56.067Z,1018.26
2019-04-30T10:04:56.059Z,1018.28
2019-04-30T10:05:55.593Z,1018.28
2019-04-30T10:06:55.593Z,1018.30
2019-04-30T10:07:55.579Z,1018.26
2019-04-30T10:08:55.576Z,1018.22
2019-04-30T10:09:55.572Z,1018.23
2019-04-30T10:10:55.664Z,1018.19
2019-04-30T10:11:55.969Z,1018.16
2019-04-30T10:12:55.549Z,1018.17
2019-04-30T10:13:55.543Z,1018.15
2019-04-30T10:14:55.544Z,1018.10
2019-04-30T10:15:55.534Z,1018.10
2019-04-30T10:16:55.534Z,1018.10
2019-04-30T10:17:55.532Z,1018.08
2019-04-30T10:19:54.638Z,1018.02
2019-04-30T10:20:54.625Z,1017.98
2019-04-30T10:21:54.628Z,1017.97
2019-04-30T10:22:54.625Z,1017.96
2019-04-30T10:23:54.617Z,1017.95
2019-04-30T10:24:54.621Z,1017.95
2019-04-30T10:25:54.606Z,1017.93
2019-04-30T10:26:54.615Z,1017.94
2019-04-30T10:27:54.606Z,1017.90
2019-04-30T10:28:54.605Z,1017.87
2019-04-30T10:29:54.601Z,1017.89
2019-04-30T10:30:54.590Z,1017.81
2019-04-30T10:32:29.824Z,1017.82
2019-04-30T10:32:54.590Z,1017.81
2019-04-30T10:33:54.578Z,1017.78
2019-04-30T10:34:54.583Z,1017.79
2019-04-30T10:35:54.573Z,1017.79
2019-04-30T10:36:54.569Z,1017.82
2019-04-30T10:37:54.567Z,1017.78
2019-04-30T10:38:54.565Z,1017.77
2019-04-30T10:39:54.577Z,1017.74
2019-04-30T10:40:54.558Z,1017.69
2019-04-30T10:41:54.556Z,1017.73
2019-04-30T10:42:54.559Z,1017.72
2019-04-30T10:43:54.550Z,1017.72
2019-04-30T10:46:40.162Z,1017.69
2019-04-30T10:47:40.154Z,1017.68
2019-04-30T10:48:40.153Z,1017.69
2019-04-30T10:51:26.226Z,1017.68
2019-04-30T10:52:26.222Z,1017.65
2019-04-30T10:53:26.223Z,1017.52
2019-04-30T10:56:44.493Z,1017.53
2019-04-30T10:59:29.550Z,1017.59
2019-04-30T11:02:14.609Z,1017.52
2019-04-30T11:04:59.719Z,1017.54
2019-04-30T12:55:33.917Z,1016.43
2019-04-30T12:58:01.621Z,1016.37
2019-04-30T12:59:32.895Z,1016.40
2019-04-30T13:00:00.444Z,1016.38
2019-04-30T13:00:59.656Z,1016.39
2019-04-30T13:01:59.644Z,1016.39
2019-04-30T13:02:59.624Z,1016.39
2019-04-30T13:04:01.354Z,1016.39
2019-04-30T13:05:00.495Z,1016.36
2019-04-30T13:06:01.185Z,1016.37
2019-04-30T13:07:02.107Z,1016.31
2019-04-30T13:08:00.591Z,1016.27
2019-04-30T13:09:00.612Z,1016.31
2019-04-30T13:10:01.366Z,1016.25
2019-04-30T13:10:59.962Z,1016.23
2019-04-30T13:12:00.850Z,1016.20
2019-04-30T13:12:59.934Z,1016.16
2019-04-30T13:14:00.267Z,1016.17
2019-04-30T13:14:59.465Z,1016.19
2019-04-30T13:16:00.051Z,1016.18
2019-04-30T13:16:59.429Z,1016.15
2019-04-30T13:17:59.418Z,1016.13
2019-04-30T13:18:59.495Z,1016.05
2019-04-30T13:19:59.379Z,1016.11
2019-04-30T13:20:59.494Z,1016.05
2019-04-30T13:21:59.358Z,1016.04
2019-04-30T13:22:59.340Z,1016.06
2019-04-30T13:23:59.319Z,1016.00
2019-04-30T13:24:59.772Z,1016.04
2019-04-30T13:26:00.993Z,1016.03
2019-04-30T13:26:59.601Z,1016.03
2019-04-30T13:27:59.269Z,1016.03
2019-04-30T13:28:59.245Z,1015.99
2019-04-30T13:29:59.237Z,1015.97
2019-04-30T13:30:59.347Z,1015.98
2019-04-30T13:31:59.202Z,1015.93
2019-04-30T13:32:59.393Z,1015.90
2019-04-30T13:34:01.603Z,1015.94
2019-04-30T13:35:00.988Z,1015.92
2019-04-30T13:35:59.143Z,1015.92
2019-04-30T13:36:59.436Z,1015.99
2019-04-30T13:37:59.114Z,1015.92
2019-04-30T13:38:59.463Z,1015.88
2019-04-30T13:39:59.081Z,1015.89
2019-04-30T13:40:59.071Z,1015.94
2019-04-30T13:41:59.275Z,1015.84
2019-04-30T13:42:59.037Z,1015.87
2019-04-30T13:43:59.023Z,1015.88
2019-04-30T13:44:59.010Z,1015.86
2019-04-30T13:45:59.000Z,1015.86
2019-04-30T13:46:58.976Z,1015.82
2019-04-30T13:47:59.012Z,1015.77
2019-04-30T13:48:58.953Z,1015.78
2019-04-30T13:49:59.452Z,1015.78
2019-04-30T13:50:58.917Z,1015.82
2019-04-30T13:51:58.908Z,1015.81
2019-04-30T13:52:58.926Z,1015.82
2019-04-30T13:53:58.882Z,1015.86
2019-04-30T13:54:58.854Z,1015.82
2019-04-30T13:55:58.979Z,1015.79
2019-04-30T13:56:59.174Z,1015.77
2019-04-30T13:57:58.822Z,1015.77
2019-04-30T13:58:58.794Z,1015.78
2019-04-30T14:00:42.911Z,1015.76
2019-04-30T14:01:42.888Z,1015.73
2019-04-30T14:02:44.804Z,1015.75
2019-04-30T14:03:42.863Z,1015.74
2019-04-30T14:05:16.049Z,1015.72
2019-04-30T14:06:16.046Z,1015.70
2019-04-30T14:06:42.811Z,1015.72
2019-04-30T14:07:42.792Z,1015.69
2019-04-30T14:08:42.780Z,1015.67
2019-04-30T14:09:42.766Z,1015.68